Time;durP1;ratioP1;P1;durP2;ratioP2;P2;SDS_P1;SDS_P2;PMS_P1;PMS_P2;Temp;Humidity;BMP_temperature;BMP_pressure;BME280_temperature;BME280_humidity;BME280_pressure;Samples;Min_cycle;Max_cycle;Signal;HPM_P1;HPM_P2
2022/12/30 00:02:21;;;;;;;9.05;2.33;;;;;;;4.92;96.81;100907.22;5010948;28;20528;-77
2022/12/30 00:04:46;;;;;;;9.65;2.70;;;;;;;4.91;97.23;100904.63;5011599;28;20477;-77
2022/12/30 00:07:12;;;;;;;8.27;3.33;;;;;;;4.89;97.22;100907.38;5030620;28;20424;-77
2022/12/30 00:09:37;;;;;;;10.38;2.47;;;;;;;4.88;97.50;100908.31;5014268;28;20115;-77
2022/12/30 00:33:06;;;;;;;8.10;2.17;;;;;;;4.89;97.52;100918.16;5009923;28;20132;-77
2022/12/30 00:34:13;;;;;;;10.20;2.50;;;;;;;4.60;97.19;100944.66;5025536;28;20041;-77
2022/12/30 00:36:39;;;;;;;8.80;2.08;;;;;;;4.57;98.14;100934.03;5030323;28;20060;-77
2022/12/30 00:39:04;;;;;;;7.57;1.98;;;;;;;4.56;98.03;100943.03;5021844;28;20505;-77
2022/12/30 00:44:13;;;;;;;12.15;2.88;;;;;;;4.51;98.35;100930.72;5027489;28;20049;-77
2022/12/30 00:46:40;;;;;;;8.88;2.80;;;;;;;4.52;98.48;100937.84;5018077;28;20109;-77
2022/12/30 00:57:17;;;;;;;17.65;3.95;;;;;;;4.45;98.95;100931.91;5010150;28;20065;-77
2022/12/30 00:59:43;;;;;;;13.73;2.85;;;;;;;4.45;98.85;100933.72;5009215;28;20085;-77
2022/12/30 01:02:08;;;;;;;16.45;2.40;;;;;;;4.42;98.97;100932.03;5017365;28;20037;-77
2022/12/30 01:04:33;;;;;;;11.70;3.30;;;;;;;4.44;99.14;100937.34;5010398;28;20045;-77
2022/12/30 01:06:59;;;;;;;12.88;2.60;;;;;;;4.42;99.33;100937.41;5024060;28;20030;-77
2022/12/30 01:09:24;;;;;;;12.65;2.97;;;;;;;4.40;99.17;100944.69;5010216;28;20084;-75
2022/12/30 01:12:07;;;;;;;17.23;3.10;;;;;;;4.41;99.27;100945.56;5010379;28;20092;-77
2022/12/30 01:14:39;;;;;;;;;;;;;;;4.40;98.65;100950.09;5010647;28;20034;-77
2022/12/30 01:17:05;;;;;;;9.85;2.55;;;;;;;4.36;99.26;100948.47;5024425;28;20288;-77
2022/12/30 01:19:31;;;;;;;13.05;3.00;;;;;;;4.33;99.06;100943.22;5009963;28;20462;-77
2022/12/30 01:21:57;;;;;;;13.48;2.38;;;;;;;4.31;99.30;100945.13;5010012;28;20080;-77
2022/12/30 01:24:23;;;;;;;19.10;3.67;;;;;;;4.27;99.35;100944.38;5009479;28;20040;-77
2022/12/30 01:26:48;;;;;;;14.40;2.72;;;;;;;4.27;99.49;100946.19;5010311;28;20042;-77
2022/12/30 01:29:26;;;;;;;14.10;2.58;;;;;;;4.29;100.00;100950.56;5008718;28;20050;-76
2022/12/30 01:31:55;;;;;;;14.52;2.35;;;;;;;4.32;100.00;100953.13;5009922;28;20385;-77
2022/12/30 01:34:20;;;;;;;16.05;2.97;;;;;;;4.32;99.76;100955.81;5025298;28;20453;-77
2022/12/30 01:36:45;;;;;;;7.40;2.63;;;;;;;4.30;99.71;100970.31;5029333;28;20025;-77
2022/12/30 01:39:11;;;;;;;9.00;2.63;;;;;;;4.27;99.91;100962.34;5026960;28;20083;-77
2022/12/30 01:41:36;;;;;;;25.70;2.97;;;;;;;4.25;100.00;100967.81;5014935;28;20378;-77
2022/12/30 01:44:40;;;;;;;19.50;3.90;;;;;;;4.25;99.93;100978.59;5017932;28;20080;-77
2022/12/30 01:47:08;;;;;;;9.95;2.40;;;;;;;4.26;99.71;100982.16;5019910;28;20064;-77
2022/12/30 01:49:38;;;;;;;10.80;3.33;;;;;;;4.26;100.00;100979.44;5025956;28;20108;-77
2022/12/30 01:52:04;;;;;;;11.13;2.47;;;;;;;4.26;100.00;100983.03;5025048;28;20034;-77
2022/12/30 01:54:30;;;;;;;10.05;2.50;;;;;;;4.23;99.98;100988.53;5027413;28;20040;-77
2022/12/30 01:56:55;;;;;;;13.52;2.45;;;;;;;4.20;100.00;100983.31;5028897;28;20393;-77
2022/12/30 01:59:21;;;;;;;10.95;2.17;;;;;;;4.15;99.97;100982.63;5027397;28;20068;-77
2022/12/30 02:01:48;;;;;;;11.35;2.50;;;;;;;4.18;100.00;100995.06;5026241;28;20017;-77
2022/12/30 02:04:25;;;;;;;13.77;2.13;;;;;;;4.21;100.00;100992.25;5024688;28;20102;-77
2022/12/30 02:07:05;;;;;;;9.02;2.28;;;;;;;4.22;100.00;100985.91;5027004;28;20454;-77
2022/12/30 02:09:33;;;;;;;14.25;3.20;;;;;;;4.21;100.00;100979.66;5023744;28;20069;-77
2022/12/30 02:11:59;;;;;;;12.00;2.30;;;;;;;4.23;100.00;100964.28;5028234;28;20091;-77
2022/12/30 02:14:27;;;;;;;12.38;2.63;;;;;;;4.24;100.00;100968.75;5025869;28;20103;-77
2022/12/30 02:17:17;;;;;;;13.80;3.22;;;;;;;4.23;100.00;100966.13;5024479;28;20585;-76
2022/12/30 02:20:20;;;;;;;15.85;3.08;;;;;;;4.20;100.00;100955.50;5025817;28;20044;-77
2022/12/30 02:23:28;;;;;;;11.82;2.80;;;;;;;4.19;100.00;100959.09;5006226;28;20041;-76
2022/12/30 02:26:04;;;;;;;11.48;2.13;;;;;;;4.15;100.00;100952.09;5024154;28;20030;-77
2022/12/30 02:28:33;;;;;;;9.65;2.10;;;;;;;4.15;100.00;100953.00;5008188;28;20042;-76
2022/12/30 02:31:24;;;;;;;14.63;2.55;;;;;;;4.15;100.00;100952.09;4998756;28;20477;-77
2022/12/30 02:34:08;;;;;;;8.35;2.30;;;;;;;4.16;100.00;100951.19;5008485;28;20044;-77
2022/12/30 02:36:45;;;;;;;10.13;2.10;;;;;;;4.15;100.00;100944.03;5011647;28;20489;-77
2022/12/30 02:39:39;;;;;;;11.98;2.72;;;;;;;4.15;100.00;100947.63;5007897;28;20049;-77
2022/12/30 02:45:01;;;;;;;15.50;3.27;;;;;;;4.08;100.00;100944.31;5008726;28;20038;-76
2022/12/30 02:47:36;;;;;;;13.45;2.35;;;;;;;4.06;100.00;100939.97;5007590;28;20036;-76
2022/12/30 02:52:54;;;;;;;16.42;2.67;;;;;;;3.91;100.00;100929.84;5028628;28;20029;-76
2022/12/30 02:55:19;;;;;;;7.70;2.50;;;;;;;3.90;100.00;100923.59;5018471;28;20096;-76
2022/12/30 02:57:45;;;;;;;14.93;3.55;;;;;;;3.86;100.00;100911.19;5009258;28;20474;-77
2022/12/30 03:06:29;;;;;;;;;;;;;;;3.70;100.00;100919.06;5020278;28;20030;-77
2022/12/30 03:09:01;;;;;;;9.00;2.38;;;;;;;3.62;100.00;100914.97;5027002;28;19925;-77
2022/12/30 03:11:32;;;;;;;19.00;3.13;;;;;;;3.59;100.00;100918.66;5022717;28;20068;-77
2022/12/30 03:14:15;;;;;;;13.77;2.30;;;;;;;3.54;100.00;100916.19;5008760;28;20041;-77
2022/12/30 03:16:51;;;;;;;18.30;2.70;;;;;;;3.48;100.00;100921.78;5008639;28;20048;-76
2022/12/30 03:19:21;;;;;;;15.88;2.90;;;;;;;3.45;100.00;100926.41;5009610;28;20080;-76
2022/12/30 03:21:50;;;;;;;13.18;2.85;;;;;;;3.39;100.00;100918.59;5012953;28;20133;-77
2022/12/30 03:27:06;;;;;;;7.57;2.35;;;;;;;3.31;100.00;100913.53;5012348;28;20038;-77
2022/12/30 03:29:40;;;;;;;17.15;2.65;;;;;;;3.29;100.00;100920.81;5011395;28;20116;-77
2022/12/30 03:32:10;;;;;;;8.05;2.67;;;;;;;3.28;100.00;100916.38;5026070;28;20454;-77
2022/12/30 03:34:35;;;;;;;13.57;2.30;;;;;;;3.28;100.00;100911.00;5013773;28;20485;-76
2022/12/30 03:37:17;;;;;;;8.60;2.40;;;;;;;3.26;100.00;100910.16;5061668;28;20083;-77
2022/12/30 03:39:48;;;;;;;14.43;2.85;;;;;;;3.23;100.00;100905.81;5025676;28;20033;-75
2022/12/30 03:42:15;;;;;;;10.30;2.53;;;;;;;3.22;100.00;100906.75;5012702;28;20540;-76
2022/12/30 03:44:42;;;;;;;14.18;3.03;;;;;;;3.22;100.00;100913.94;5012012;28;20022;-77
2022/12/30 03:47:15;;;;;;;8.88;2.85;;;;;;;3.20;100.00;100913.13;5025965;28;20064;-76
2022/12/30 03:49:42;;;;;;;10.15;2.42;;;;;;;3.16;100.00;100911.50;5011193;28;20030;-78
2022/12/30 03:52:10;;;;;;;11.70;2.50;;;;;;;3.15;100.00;100923.19;5011773;28;20393;-77
2022/12/30 03:54:35;;;;;;;19.85;2.17;;;;;;;3.12;100.00;100921.47;5014512;28;20095;-77
2022/12/30 03:57:01;;;;;;;14.02;2.40;;;;;;;3.07;100.00;100916.28;5030303;28;20029;-77
2022/12/30 03:59:26;;;;;;;7.50;2.33;;;;;;;3.07;100.00;100921.66;5030165;28;20124;-76
2022/12/30 04:01:51;;;;;;;7.55;2.72;;;;;;;3.06;100.00;100924.44;5013996;28;20077;-76
2022/12/30 04:04:19;;;;;;;17.17;4.15;;;;;;;3.03;100.00;100919.16;5016693;28;20052;-76
2022/12/30 04:06:44;;;;;;;19.38;3.38;;;;;;;2.99;100.00;100912.19;5031408;28;20532;-76
2022/12/30 04:09:10;;;;;;;17.90;2.75;;;;;;;2.98;100.00;100919.34;5011697;28;20048;-76
2022/12/30 04:11:35;;;;;;;10.43;2.53;;;;;;;2.95;100.00;100922.19;5011926;28;20033;-77
2022/12/30 04:14:01;;;;;;;13.48;2.90;;;;;;;2.92;100.00;100922.28;5043365;28;20038;-77
2022/12/30 04:16:26;;;;;;;14.18;3.00;;;;;;;2.93;100.00;100921.34;5010982;28;20038;-76
2022/12/30 04:18:51;;;;;;;11.68;2.50;;;;;;;2.92;100.00;100929.47;5011242;28;20041;-77
2022/12/30 04:21:17;;;;;;;13.80;2.58;;;;;;;2.86;100.00;100935.97;5011573;28;20041;-77
2022/12/30 04:23:42;;;;;;;12.10;2.63;;;;;;;2.86;100.00;100932.41;5011426;28;20099;-77
2022/12/30 04:26:07;;;;;;;9.13;2.30;;;;;;;2.82;100.00;100937.03;5011211;28;20044;-77
2022/12/30 04:28:33;;;;;;;11.18;2.50;;;;;;;2.74;100.00;100923.00;5011432;28;20081;-77
2022/12/30 04:30:58;;;;;;;20.92;3.00;;;;;;;2.78;100.00;100927.34;5010790;28;20017;-77
2022/12/30 04:33:23;;;;;;;11.45;2.58;;;;;;;2.78;100.00;100925.53;5001650;28;20188;-76
2022/12/30 04:35:49;;;;;;;13.52;2.75;;;;;;;2.76;100.00;100916.66;5018910;28;20504;-76
2022/12/30 04:38:14;;;;;;;16.27;2.95;;;;;;;2.75;100.00;100920.28;5026376;28;20129;-77
2022/12/30 04:40:40;;;;;;;9.60;3.42;;;;;;;2.72;100.00;100911.47;5010664;28;20038;-77
2022/12/30 04:43:05;;;;;;;12.15;2.78;;;;;;;2.74;100.00;100923.88;5009851;28;20089;-77
2022/12/30 04:45:30;;;;;;;6.13;2.53;;;;;;;2.70;100.00;100916.88;5009333;28;20091;-77
2022/12/30 04:47:56;;;;;;;13.05;2.38;;;;;;;2.71;100.00;100920.47;5010729;28;20041;-76
2022/12/30 04:50:21;;;;;;;16.17;3.05;;;;;;;2.70;100.00;100916.88;5010657;28;20497;-76
2022/12/30 04:52:46;;;;;;;11.45;2.92;;;;;;;2.67;100.00;100917.00;5010938;28;20375;-77
2022/12/30 04:55:12;;;;;;;15.82;2.88;;;;;;;2.68;100.00;100923.25;5018011;28;20393;-77
2022/12/30 04:57:37;;;;;;;9.95;3.13;;;;;;;2.65;100.00;100920.69;5062556;28;20080;-77
2022/12/30 05:00:05;;;;;;;16.27;2.80;;;;;;;2.63;100.00;100919.88;5030432;28;20079;-76
2022/12/30 05:02:31;;;;;;;6.90;2.55;;;;;;;2.59;100.00;100920.94;5025143;28;20041;-76
2022/12/30 05:04:56;;;;;;;11.20;2.63;;;;;;;2.60;100.00;100907.44;5010575;28;20026;-77
2022/12/30 05:07:21;;;;;;;10.05;2.65;;;;;;;2.61;100.00;100908.31;5009322;28;20107;-76
2022/12/30 05:09:47;;;;;;;14.55;3.22;;;;;;;2.57;100.00;100898.63;5010528;28;20185;-76
2022/12/30 05:12:12;;;;;;;11.50;2.80;;;;;;;2.53;100.00;100896.06;5010500;28;20488;-77
2022/12/30 05:14:38;;;;;;;17.33;2.92;;;;;;;2.57;100.00;100907.56;5017824;28;20044;-78
2022/12/30 05:17:04;;;;;;;15.07;3.72;;;;;;;2.58;100.00;100892.31;5014398;28;20087;-77
2022/12/30 05:19:29;;;;;;;17.13;2.97;;;;;;;2.58;100.00;100886.97;5009888;28;20046;-77
2022/12/30 05:21:54;;;;;;;19.23;3.22;;;;;;;2.58;100.00;100889.66;5008850;28;20045;-77
2022/12/30 05:27:04;;;;;;;12.75;2.67;;;;;;;2.61;100.00;100889.50;5030285;28;20034;-77
2022/12/30 05:29:29;;;;;;;11.05;2.80;;;;;;;2.65;100.00;100891.13;5029774;28;20045;-77
2022/12/30 05:31:54;;;;;;;10.65;2.90;;;;;;;2.65;100.00;100892.00;5016812;28;20112;-77
2022/12/30 05:34:20;;;;;;;17.88;2.60;;;;;;;2.70;100.00;100891.81;5009902;28;20100;-77
2022/12/30 05:36:45;;;;;;;11.10;2.95;;;;;;;2.71;100.00;100888.22;5025701;28;20033;-77
2022/12/30 05:39:12;;;;;;;14.70;2.80;;;;;;;2.71;100.00;100894.47;5027965;28;20040;-75
2022/12/30 05:41:38;;;;;;;21.92;3.38;;;;;;;2.78;100.00;100900.47;5009928;28;20042;-76
2022/12/30 05:44:03;;;;;;;22.33;3.55;;;;;;;2.78;100.00;100900.47;5009772;28;20528;-76
2022/12/30 05:46:29;;;;;;;15.77;3.10;;;;;;;2.79;100.00;100900.41;5009485;28;20033;-77
2022/12/30 05:48:54;;;;;;;6.60;3.35;;;;;;;2.82;100.00;100885.97;5008611;28;20068;-77
2022/12/30 05:51:19;;;;;;;9.15;2.42;;;;;;;2.90;100.00;100902.69;4991981;28;20442;-76
2022/12/30 05:53:45;;;;;;;7.97;2.97;;;;;;;2.89;100.00;100881.22;5010281;28;20037;-77
2022/12/30 05:56:10;;;;;;;15.02;2.30;;;;;;;2.90;100.00;100888.38;5009486;28;20084;-77
2022/12/30 05:58:36;;;;;;;10.48;3.78;;;;;;;2.95;100.00;100898.00;5009893;28;20076;-77
2022/12/30 06:01:02;;;;;;;11.07;2.97;;;;;;;2.97;100.00;100896.09;5008908;28;20112;-77
2022/12/30 06:03:28;;;;;;;15.80;2.65;;;;;;;2.98;100.00;100892.47;5009949;28;20128;-77
2022/12/30 06:05:58;;;;;;;14.98;2.88;;;;;;;2.97;100.00;100893.41;5016926;28;20031;-76
2022/12/30 06:08:24;;;;;;;14.68;3.22;;;;;;;3.00;100.00;100889.75;5013448;28;20545;-76
2022/12/30 06:10:49;;;;;;;18.70;3.08;;;;;;;2.97;100.00;100879.13;5008835;28;20049;-75
2022/12/30 06:13:15;;;;;;;13.63;3.42;;;;;;;3.02;100.00;100871.72;5009901;28;20053;-77
2022/12/30 06:15:40;;;;;;;14.70;3.45;;;;;;;3.04;100.00;100867.19;5042019;28;20145;-77
2022/12/30 06:18:05;;;;;;;15.05;2.88;;;;;;;3.10;100.00;100866.06;5022576;28;20053;-77
2022/12/30 06:20:34;;;;;;;14.40;3.65;;;;;;;3.10;100.00;100863.38;5009232;28;20497;-77
2022/12/30 06:22:59;;;;;;;11.85;2.70;;;;;;;3.13;100.00;100869.50;5007997;28;20041;-76
2022/12/30 06:25:25;;;;;;;14.73;2.95;;;;;;;3.17;100.00;100859.47;5017972;28;20033;-76
2022/12/30 06:27:50;;;;;;;23.40;3.88;;;;;;;3.18;100.00;100869.31;5029096;28;20071;-77
2022/12/30 06:30:15;;;;;;;11.57;3.22;;;;;;;3.14;100.00;100852.44;5029088;28;20489;-76
2022/12/30 06:32:41;;;;;;;15.38;3.28;;;;;;;3.18;100.00;100862.13;5010410;28;20478;-76
2022/12/30 06:35:07;;;;;;;12.77;3.13;;;;;;;3.19;100.00;100855.78;5020467;28;20400;-77
2022/12/30 06:37:32;;;;;;;12.95;3.63;;;;;;;3.23;100.00;100857.41;5013205;28;20084;-75
2022/12/30 06:39:58;;;;;;;19.70;2.83;;;;;;;3.26;100.00;100868.06;5010115;28;20101;-77
2022/12/30 06:42:23;;;;;;;15.02;3.10;;;;;;;3.25;100.00;100860.91;5043602;28;20038;-77
2022/12/30 06:44:49;;;;;;;17.80;3.00;;;;;;;3.23;100.00;100838.59;5010286;28;20039;-76
2022/12/30 06:47:14;;;;;;;14.18;3.17;;;;;;;3.23;100.00;100837.72;5007373;28;20382;-77
2022/12/30 06:49:39;;;;;;;19.77;3.90;;;;;;;3.27;100.00;100839.34;5011086;28;20034;-78
2022/12/30 06:52:04;;;;;;;17.98;3.58;;;;;;;3.25;100.00;100828.66;5039231;28;20030;-78
2022/12/30 06:54:30;;;;;;;12.85;3.00;;;;;;;3.23;100.00;100822.47;5041738;28;20064;-77
2022/12/30 06:56:55;;;;;;;14.88;3.65;;;;;;;3.23;100.00;100816.22;5011817;28;20037;-77
2022/12/30 06:59:20;;;;;;;16.23;3.33;;;;;;;3.27;100.00;100805.28;5037619;28;20021;-77
2022/12/30 07:01:46;;;;;;;12.02;2.90;;;;;;;3.28;100.00;100798.94;5043617;28;20116;-77
2022/12/30 07:04:11;;;;;;;9.43;2.88;;;;;;;3.27;100.00;100799.91;5014566;28;20021;-77
2022/12/30 07:06:36;;;;;;;13.88;3.17;;;;;;;3.31;100.00;100796.16;5011857;28;20036;-78
2022/12/30 07:09:02;;;;;;;9.57;2.80;;;;;;;3.29;100.00;100789.94;5010207;28;20489;-75
2022/12/30 07:11:27;;;;;;;13.73;2.90;;;;;;;3.26;100.00;100776.66;5011560;28;20033;-78
2022/12/30 07:13:53;;;;;;;9.18;3.00;;;;;;;3.27;100.00;100781.09;5014109;28;20034;-75
2022/12/30 07:16:18;;;;;;;11.70;2.95;;;;;;;3.30;100.00;100780.94;5026222;28;20052;-77
2022/12/30 07:18:43;;;;;;;15.10;3.13;;;;;;;3.32;100.00;100778.19;5012787;28;20486;-77
2022/12/30 07:21:09;;;;;;;10.23;3.20;;;;;;;3.30;100.00;100780.06;5014620;28;20128;-77
2022/12/30 07:23:34;;;;;;;17.00;3.63;;;;;;;3.30;100.00;100780.06;5009535;28;20038;-77
2022/12/30 07:25:59;;;;;;;8.60;3.47;;;;;;;3.31;100.00;100777.31;5011385;28;20045;-77
2022/12/30 07:28:25;;;;;;;15.07;2.97;;;;;;;3.32;100.00;100780.88;5010865;28;20045;-77
2022/12/30 07:30:50;;;;;;;11.65;3.63;;;;;;;3.31;100.00;100776.41;5010978;28;20136;-76
2022/12/30 07:33:15;;;;;;;9.60;2.60;;;;;;;3.32;100.00;100764.75;5011205;28;20436;-77
2022/12/30 07:35:41;;;;;;;12.73;3.78;;;;;;;3.33;100.00;100772.75;5015995;28;20374;-76
2022/12/30 07:38:06;;;;;;;15.65;2.60;;;;;;;3.40;100.00;100757.19;5011424;28;20405;-76
2022/12/30 07:40:31;;;;;;;7.13;2.88;;;;;;;3.45;100.00;100754.31;5015305;28;20057;-78
2022/12/30 07:42:57;;;;;;;10.98;3.30;;;;;;;3.48;100.00;100751.50;5010576;28;20033;-76
2022/12/30 07:45:23;;;;;;;9.57;3.13;;;;;;;3.52;100.00;100748.59;5011177;28;20052;-77
2022/12/30 07:47:48;;;;;;;10.43;3.05;;;;;;;3.52;100.00;100739.66;5013402;28;20037;-76
2022/12/30 07:50:13;;;;;;;12.30;2.83;;;;;;;3.56;100.00;100728.69;5031618;28;20034;-77
2022/12/30 07:52:39;;;;;;;10.55;2.80;;;;;;;3.61;100.00;100722.22;5017833;28;20592;-77
2022/12/30 07:55:05;;;;;;;12.70;3.08;;;;;;;3.66;100.00;100722.88;5017650;28;20420;-77
2022/12/30 07:57:30;;;;;;;6.18;2.20;;;;;;;3.64;100.00;100714.00;5031662;28;20041;-77
2022/12/30 07:59:56;;;;;;;17.65;3.20;;;;;;;3.66;100.00;100710.31;5031451;28;20024;-78
2022/12/30 08:02:22;;;;;;;16.42;3.58;;;;;;;3.73;100.00;100705.50;5015306;28;20041;-78
2022/12/30 08:04:48;;;;;;;9.10;2.72;;;;;;;3.77;100.00;100699.03;5010709;28;20029;-77
2022/12/30 08:07:17;;;;;;;9.63;2.50;;;;;;;3.83;100.00;100699.66;5013033;28;20044;-76
2022/12/30 08:09:43;;;;;;;9.57;4.43;;;;;;;3.91;100.00;100703.78;5011585;28;20042;-77
2022/12/30 08:12:09;;;;;;;8.93;3.17;;;;;;;3.95;100.00;100692.78;5043255;28;20871;-77
2022/12/30 08:14:34;;;;;;;5.25;2.55;;;;;;;4.00;100.00;100692.56;5008973;28;20520;-78
2022/12/30 08:17:00;;;;;;;11.52;2.80;;;;;;;4.02;100.00;100688.00;5012025;28;20034;-77
2022/12/30 08:19:27;;;;;;;7.30;2.70;;;;;;;4.09;100.00;100686.75;5017620;28;20095;-77
2022/12/30 08:21:52;;;;;;;8.77;2.75;;;;;;;4.15;100.00;100681.09;5024322;28;20037;-78
2022/12/30 08:24:18;;;;;;;12.70;3.97;;;;;;;4.20;100.00;100681.75;5016278;28;20454;-76
2022/12/30 08:26:43;;;;;;;11.80;2.72;;;;;;;4.26;100.00;100678.75;5022053;28;20045;-77
2022/12/30 08:29:08;;;;;;;7.30;3.00;;;;;;;4.32;100.00;100689.19;5023451;28;20482;-77
2022/12/30 08:31:34;;;;;;;10.52;2.60;;;;;;;4.40;100.00;100678.06;5021190;28;20045;-77
2022/12/30 08:33:59;;;;;;;11.25;2.95;;;;;;;4.44;100.00;100668.88;5010299;28;20038;-77
2022/12/30 08:36:28;;;;;;;15.55;3.35;;;;;;;4.49;100.00;100669.53;5022821;28;20049;-76
2022/12/30 08:38:56;;;;;;;8.60;3.35;;;;;;;4.57;100.00;100655.69;5009790;28;20409;-78
2022/12/30 08:41:28;;;;;;;7.82;3.08;;;;;;;4.63;100.00;100652.66;5014568;28;20060;-77
2022/12/30 08:43:56;;;;;;;7.15;2.42;;;;;;;4.67;100.00;100658.78;5025515;28;20558;-78
2022/12/30 08:46:22;;;;;;;12.73;2.92;;;;;;;4.70;100.00;100653.22;5021142;28;20119;-76
2022/12/30 08:48:47;;;;;;;15.05;2.13;;;;;;;4.71;100.00;100642.38;5013157;28;20526;-77
2022/12/30 08:51:13;;;;;;;7.03;2.92;;;;;;;4.74;100.00;100639.50;5026458;28;20197;-79
2022/12/30 08:53:38;;;;;;;9.75;2.63;;;;;;;4.82;100.00;100629.19;5016853;28;20025;-77
2022/12/30 08:56:14;;;;;;;11.70;2.65;;;;;;;4.89;100.00;100634.25;5014262;28;20045;-77
2022/12/30 08:58:39;;;;;;;12.70;3.10;;;;;;;4.97;100.00;100632.91;5074304;28;20340;-77
2022/12/30 09:01:10;;;;;;;9.13;2.80;;;;;;;5.00;100.00;100623.81;5029463;28;20478;-77
2022/12/30 09:03:36;;;;;;;8.10;2.50;;;;;;;5.05;100.00;100616.34;5008668;28;20054;-76
2022/12/30 09:06:02;;;;;;;7.65;2.30;;;;;;;5.11;100.00;100624.97;5018543;28;20017;-77
2022/12/30 09:08:28;;;;;;;5.55;2.55;;;;;;;5.14;100.00;100621.25;5010450;28;20056;-77
2022/12/30 09:11:02;;;;;;;5.80;2.42;;;;;;;5.18;100.00;100609.34;5034731;28;20040;-77
2022/12/30 09:13:28;;;;;;;10.95;3.28;;;;;;;5.23;100.00;100609.97;5020348;28;20051;-77
2022/12/30 09:15:53;;;;;;;7.88;3.15;;;;;;;5.26;100.00;100592.72;5023438;28;20026;-77
2022/12/30 09:18:19;;;;;;;7.28;2.30;;;;;;;5.33;100.00;100588.75;5016454;28;20136;-77
2022/12/30 09:20:44;;;;;;;4.05;1.85;;;;;;;5.37;100.00;100591.19;4992653;28;20034;-77
2022/12/30 09:23:10;;;;;;;4.18;1.83;;;;;;;5.45;100.00;100592.56;5008510;28;20034;-77
2022/12/30 09:25:35;;;;;;;4.30;2.08;;;;;;;5.54;100.00;100597.47;5019303;28;20063;-77
2022/12/30 09:28:00;;;;;;;5.85;2.10;;;;;;;5.58;100.00;100590.94;5029674;28;20025;-77
2022/12/30 09:30:26;;;;;;;7.18;2.22;;;;;;;5.62;100.00;100581.72;5029447;28;20037;-76
2022/12/30 09:32:51;;;;;;;9.20;2.10;;;;;;;5.70;100.00;100581.31;5009786;28;20030;-77
2022/12/30 09:35:17;;;;;;;8.70;2.25;;;;;;;5.76;100.00;100587.22;5013439;28;20037;-77
2022/12/30 09:37:43;;;;;;;5.43;1.75;;;;;;;5.82;100.00;100575.19;5029213;28;20045;-77
2022/12/30 09:40:14;;;;;;;4.93;1.70;;;;;;;5.91;100.00;100571.09;5023305;28;20045;-77
2022/12/30 09:45:51;;;;;;;8.57;1.95;;;;;;;6.05;100.00;100560.41;5024508;28;20030;-77
2022/12/30 09:48:44;;;;;;;4.90;1.70;;;;;;;6.12;100.00;100551.00;5024966;28;20038;-76
2022/12/30 09:51:15;;;;;;;6.78;2.10;;;;;;;6.18;100.00;100547.06;5007330;28;20058;-78
2022/12/30 09:53:51;;;;;;;2.78;1.35;;;;;;;6.25;99.44;100546.63;5008705;28;20025;-77
2022/12/30 09:56:27;;;;;;;3.38;1.17;;;;;;;6.28;100.00;100542.84;5025539;28;20555;-77
2022/12/30 09:58:54;;;;;;;6.15;1.52;;;;;;;6.30;99.65;100540.94;5029358;28;20038;-77
2022/12/30 10:01:42;;;;;;;3.53;1.30;;;;;;;6.33;100.00;100532.63;5021726;28;20040;-77
2022/12/30 10:04:14;;;;;;;3.28;1.55;;;;;;;6.38;99.31;100514.31;5021191;28;20143;-76
2022/12/30 10:07:06;;;;;;;9.80;1.75;;;;;;;6.43;99.37;100517.59;5024069;28;20493;-77
2022/12/30 10:09:52;;;;;;;8.25;1.75;;;;;;;6.42;99.35;100515.88;5028132;28;20555;-77
2022/12/30 10:12:34;;;;;;;4.93;1.48;;;;;;;6.50;98.47;100505.47;5026803;28;20099;-76
2022/12/30 10:15:16;;;;;;;6.72;1.92;;;;;;;6.56;98.76;100509.63;5018576;28;20509;-77
2022/12/30 10:18:18;;;;;;;7.40;1.53;;;;;;;6.60;98.77;100490.41;5007192;28;20077;-77
2022/12/30 10:20:53;;;;;;;8.20;1.63;;;;;;;6.63;98.10;100478.56;5041180;28;20037;-77
2022/12/30 10:23:40;;;;;;;4.47;1.20;;;;;;;6.67;97.15;100465.69;5009401;28;20124;-77
2022/12/30 10:26:15;;;;;;;5.50;1.40;;;;;;;6.72;97.38;100450.09;5009073;28;20544;-79
2022/12/30 10:29:05;;;;;;;8.70;1.40;;;;;;;6.74;97.82;100445.44;5008714;28;20096;-76
2022/12/30 10:31:36;;;;;;;3.80;1.52;;;;;;;6.74;96.94;100442.75;5005232;28;20457;-77
2022/12/30 10:34:11;;;;;;;3.92;1.20;;;;;;;6.77;96.96;100443.44;5019232;28;20389;-77
2022/12/30 10:36:48;;;;;;;7.15;1.63;;;;;;;6.77;97.16;100440.72;5022182;28;20063;-77
2022/12/30 10:39:22;;;;;;;8.52;1.70;;;;;;;6.80;97.07;100426.13;5024606;28;20122;-77
2022/12/30 10:42:06;;;;;;;7.50;2.17;;;;;;;6.83;96.37;100413.28;5029068;28;20068;-77
2022/12/30 10:44:40;;;;;;;5.47;1.50;;;;;;;6.86;96.42;100415.81;5027408;28;20038;-78
2022/12/30 10:47:15;;;;;;;5.53;1.90;;;;;;;6.87;96.72;100404.00;5014552;28;20042;-76
2022/12/30 10:50:00;;;;;;;7.93;2.00;;;;;;;6.87;96.97;100385.09;5009291;28;20053;-77
2022/12/30 10:52:26;;;;;;;6.18;1.67;;;;;;;6.94;96.04;100371.16;5007105;28;20611;-77
2022/12/30 10:54:51;;;;;;;7.00;1.55;;;;;;;6.96;95.97;100369.25;5010923;28;20026;-77
2022/12/30 10:57:24;;;;;;;3.78;1.60;;;;;;;6.96;95.91;100358.44;5017714;28;20040;-77
2022/12/30 10:59:50;;;;;;;;;;;;;;;7.00;96.93;100354.56;5027992;28;20037;-76
2022/12/30 11:02:25;;;;;;;6.82;1.85;;;;;;;7.00;96.11;100332.94;5012900;28;19967;-77
2022/12/30 11:04:51;;;;;;;3.30;1.40;;;;;;;7.02;95.41;100337.25;5014523;28;20041;-76
2022/12/30 11:07:17;;;;;;;6.43;1.27;;;;;;;7.02;95.31;100334.53;5011526;28;20029;-77
2022/12/30 11:09:44;;;;;;;8.18;1.60;;;;;;;7.06;96.24;100327.09;5016343;28;20041;-77
2022/12/30 11:15:22;;;;;;;4.47;1.20;;;;;;;7.13;94.67;100302.25;5016861;28;20036;-77
2022/12/30 11:17:56;;;;;;;9.90;1.67;;;;;;;7.20;94.11;100294.59;5009365;28;20061;-77
2022/12/30 11:20:33;;;;;;;5.10;1.30;;;;;;;7.22;94.52;100291.75;5008235;28;20061;-77
2022/12/30 11:23:00;;;;;;;6.88;1.58;;;;;;;7.21;95.03;100292.75;5012209;28;20038;-78
2022/12/30 11:25:29;;;;;;;6.07;2.90;;;;;;;7.20;95.09;100283.75;5009451;28;20026;-77
2022/12/30 11:28:00;;;;;;;6.40;1.33;;;;;;;7.20;94.84;100256.72;5006814;28;20042;-76
2022/12/30 11:30:33;;;;;;;6.70;2.25;;;;;;;7.25;94.31;100248.28;5006310;28;20061;-76
2022/12/30 11:33:01;;;;;;;8.27;1.58;;;;;;;7.26;94.42;100239.19;5024635;28;20029;-78
2022/12/30 11:35:35;;;;;;;11.50;1.58;;;;;;;7.27;93.92;100224.69;5013027;28;20031;-77
2022/12/30 11:38:03;;;;;;;8.60;2.17;;;;;;;7.29;93.78;100217.34;5014632;28;20041;-77
2022/12/30 11:40:33;;;;;;;6.05;1.52;;;;;;;7.31;94.16;100200.00;5016496;28;20112;-77
2022/12/30 11:43:24;;;;;;;5.75;1.70;;;;;;;7.33;93.97;100192.69;5029804;28;20041;-77
2022/12/30 11:46:07;;;;;;;11.60;1.80;;;;;;;7.43;93.84;100200.16;5028726;28;20123;-77
2022/12/30 11:48:36;;;;;;;11.50;1.70;;;;;;;7.46;94.21;100187.28;5011331;28;20120;-77
2022/12/30 11:51:04;;;;;;;5.15;1.52;;;;;;;7.49;93.39;100186.19;5011978;28;20076;-77
2022/12/30 11:53:35;;;;;;;5.72;1.52;;;;;;;7.53;93.31;100177.75;5012123;28;20060;-77
2022/12/30 11:56:01;;;;;;;6.97;1.25;;;;;;;7.56;92.91;100171.25;5011224;28;20041;-77
2022/12/30 11:58:31;;;;;;;6.07;1.70;;;;;;;7.59;92.69;100157.47;5010266;28;20043;-77
2022/12/30 12:01:11;;;;;;;7.13;1.50;;;;;;;7.63;91.94;100134.63;5013048;28;20029;-78
2022/12/30 12:03:51;;;;;;;6.30;1.73;;;;;;;7.70;91.56;100117.00;5011429;28;20060;-77
2022/12/30 12:06:16;;;;;;;8.82;2.17;;;;;;;7.70;91.91;100122.41;5018346;28;20228;-77
2022/12/30 12:08:50;;;;;;;14.05;1.95;;;;;;;7.71;91.87;100105.19;5008722;28;20120;-77
2022/12/30 12:11:23;;;;;;;5.78;1.83;;;;;;;7.75;92.01;100103.97;5012708;28;20074;-77
2022/12/30 12:14:12;;;;;;;4.13;2.05;;;;;;;7.78;91.97;100101.03;5013070;28;20042;-77
2022/12/30 12:16:50;;;;;;;8.35;1.38;;;;;;;7.84;91.03;100100.59;5010508;28;20069;-77
2022/12/30 12:19:42;;;;;;;4.72;1.30;;;;;;;7.88;91.70;100091.28;5010916;28;20077;-77
2022/12/30 12:22:20;;;;;;;6.80;1.33;;;;;;;7.92;91.77;100086.47;5010460;28;20096;-77
2022/12/30 12:24:52;;;;;;;3.95;1.60;;;;;;;7.96;91.62;100068.16;5010740;28;20114;-77
2022/12/30 12:27:18;;;;;;;6.93;1.52;;;;;;;7.95;92.66;100085.41;5010996;28;20474;-77
2022/12/30 12:29:45;;;;;;;7.40;2.40;;;;;;;7.95;92.00;100078.16;5011136;28;20072;-77